sensor_id;sensor_type;location;lat;lon;timestamp;P1;durP1;ratioP1;P2;durP2;ratioP2
22152;SDS011;11242;50.536;12.688;2023-07-30T00:02:03;3.88;;;2.70;;
22152;SDS011;11242;50.536;12.688;2023-07-30T00:04:29;4.05;;;2.85;;
22152;SDS011;11242;50.536;12.688;2023-07-30T00:06:55;7.70;;;2.80;;
22152;SDS011;11242;50.536;12.688;2023-07-30T00:09:20;3.67;;;2.70;;
22152;SDS011;11242;50.536;12.688;2023-07-30T00:11:46;4.28;;;2.90;;
22152;SDS011;11242;50.536;12.688;2023-07-30T00:14:11;3.92;;;3.33;;
22152;SDS011;11242;50.536;12.688;2023-07-30T00:16:37;4.15;;;3.20;;
22152;SDS011;11242;50.536;12.688;2023-07-30T00:19:02;4.68;;;3.05;;
22152;SDS011;11242;50.536;12.688;2023-07-30T00:21:28;3.70;;;2.92;;
22152;SDS011;11242;50.536;12.688;2023-07-30T00:23:54;4.45;;;3.00;;
22152;SDS011;11242;50.536;12.688;2023-07-30T00:26:20;4.15;;;3.13;;
22152;SDS011;11242;50.536;12.688;2023-07-30T00:28:45;5.72;;;2.85;;
22152;SDS011;11242;50.536;12.688;2023-07-30T00:31:11;4.28;;;2.97;;
22152;SDS011;11242;50.536;12.688;2023-07-30T00:33:36;5.10;;;3.17;;
22152;SDS011;11242;50.536;12.688;2023-07-30T00:36:02;3.65;;;3.05;;
22152;SDS011;11242;50.536;12.688;2023-07-30T00:38:28;4.47;;;3.10;;
22152;SDS011;11242;50.536;12.688;2023-07-30T00:40:54;4.15;;;2.97;;
22152;SDS011;11242;50.536;12.688;2023-07-30T00:43:21;3.42;;;3.15;;
22152;SDS011;11242;50.536;12.688;2023-07-30T00:45:47;4.05;;;3.35;;
22152;SDS011;11242;50.536;12.688;2023-07-30T00:48:13;5.68;;;3.47;;
22152;SDS011;11242;50.536;12.688;2023-07-30T00:50:40;4.93;;;3.45;;
22152;SDS011;11242;50.536;12.688;2023-07-30T00:53:07;5.90;;;4.05;;
22152;SDS011;11242;50.536;12.688;2023-07-30T00:55:35;5.15;;;3.72;;
22152;SDS011;11242;50.536;12.688;2023-07-30T00:58:01;6.95;;;4.20;;
22152;SDS011;11242;50.536;12.688;2023-07-30T01:00:30;3.85;;;3.47;;
22152;SDS011;11242;50.536;12.688;2023-07-30T01:02:57;3.90;;;3.60;;
22152;SDS011;11242;50.536;12.688;2023-07-30T01:05:22;3.60;;;3.30;;
22152;SDS011;11242;50.536;12.688;2023-07-30T01:07:48;5.18;;;3.67;;
22152;SDS011;11242;50.536;12.688;2023-07-30T01:10:14;4.97;;;4.05;;
22152;SDS011;11242;50.536;12.688;2023-07-30T01:12:41;4.07;;;3.10;;
22152;SDS011;11242;50.536;12.688;2023-07-30T01:15:08;3.78;;;3.47;;
22152;SDS011;11242;50.536;12.688;2023-07-30T01:17:35;3.70;;;3.40;;
22152;SDS011;11242;50.536;12.688;2023-07-30T01:20:02;6.10;;;3.70;;
22152;SDS011;11242;50.536;12.688;2023-07-30T01:22:28;5.03;;;3.55;;
22152;SDS011;11242;50.536;12.688;2023-07-30T01:24:55;3.58;;;3.28;;
22152;SDS011;11242;50.536;12.688;2023-07-30T01:29:57;3.95;;;3.50;;
22152;SDS011;11242;50.536;12.688;2023-07-30T01:32:26;4.30;;;3.90;;
22152;SDS011;11242;50.536;12.688;2023-07-30T01:34:54;7.43;;;3.90;;
22152;SDS011;11242;50.536;12.688;2023-07-30T01:37:22;6.78;;;4.00;;
22152;SDS011;11242;50.536;12.688;2023-07-30T01:39:48;7.30;;;4.18;;
22152;SDS011;11242;50.536;12.688;2023-07-30T01:42:15;4.25;;;3.90;;
22152;SDS011;11242;50.536;12.688;2023-07-30T01:44:41;5.13;;;4.05;;
22152;SDS011;11242;50.536;12.688;2023-07-30T01:47:07;5.40;;;4.13;;
22152;SDS011;11242;50.536;12.688;2023-07-30T01:49:33;4.68;;;4.28;;
22152;SDS011;11242;50.536;12.688;2023-07-30T01:51:58;6.10;;;4.30;;
22152;SDS011;11242;50.536;12.688;2023-07-30T01:54:24;5.80;;;4.75;;
22152;SDS011;11242;50.536;12.688;2023-07-30T01:56:50;4.68;;;4.28;;
22152;SDS011;11242;50.536;12.688;2023-07-30T01:59:15;4.40;;;4.00;;
22152;SDS011;11242;50.536;12.688;2023-07-30T02:01:41;6.80;;;4.10;;
22152;SDS011;11242;50.536;12.688;2023-07-30T02:04:08;5.25;;;4.30;;
22152;SDS011;11242;50.536;12.688;2023-07-30T02:06:33;4.80;;;3.88;;
22152;SDS011;11242;50.536;12.688;2023-07-30T02:08:59;4.10;;;3.80;;
22152;SDS011;11242;50.536;12.688;2023-07-30T02:11:25;5.60;;;3.80;;
22152;SDS011;11242;50.536;12.688;2023-07-30T02:13:50;4.43;;;4.13;;
22152;SDS011;11242;50.536;12.688;2023-07-30T02:16:16;5.55;;;4.20;;
22152;SDS011;11242;50.536;12.688;2023-07-30T02:18:42;4.18;;;3.83;;
22152;SDS011;11242;50.536;12.688;2023-07-30T02:21:07;4.80;;;4.30;;
22152;SDS011;11242;50.536;12.688;2023-07-30T02:23:33;4.22;;;3.83;;
22152;SDS011;11242;50.536;12.688;2023-07-30T02:25:58;4.40;;;4.00;;
22152;SDS011;11242;50.536;12.688;2023-07-30T02:28:24;4.50;;;4.07;;
22152;SDS011;11242;50.536;12.688;2023-07-30T02:30:50;5.03;;;4.20;;
22152;SDS011;11242;50.536;12.688;2023-07-30T02:33:15;4.70;;;4.30;;
22152;SDS011;11242;50.536;12.688;2023-07-30T02:35:42;4.57;;;4.03;;
22152;SDS011;11242;50.536;12.688;2023-07-30T02:38:08;4.65;;;4.25;;
22152;SDS011;11242;50.536;12.688;2023-07-30T02:40:34;4.50;;;4.10;;
22152;SDS011;11242;50.536;12.688;2023-07-30T02:43:00;4.68;;;4.28;;
22152;SDS011;11242;50.536;12.688;2023-07-30T02:45:25;4.30;;;3.90;;
22152;SDS011;11242;50.536;12.688;2023-07-30T02:47:51;6.00;;;4.38;;
22152;SDS011;11242;50.536;12.688;2023-07-30T02:50:17;6.43;;;4.40;;
22152;SDS011;11242;50.536;12.688;2023-07-30T02:52:42;4.63;;;4.22;;
22152;SDS011;11242;50.536;12.688;2023-07-30T02:55:09;4.50;;;4.10;;
22152;SDS011;11242;50.536;12.688;2023-07-30T02:57:34;4.57;;;4.18;;
22152;SDS011;11242;50.536;12.688;2023-07-30T03:00:00;4.65;;;4.07;;
22152;SDS011;11242;50.536;12.688;2023-07-30T03:02:25;7.38;;;4.68;;
22152;SDS011;11242;50.536;12.688;2023-07-30T03:04:51;4.93;;;4.15;;
22152;SDS011;11242;50.536;12.688;2023-07-30T03:07:17;4.88;;;4.00;;
22152;SDS011;11242;50.536;12.688;2023-07-30T03:09:43;4.80;;;4.32;;
22152;SDS011;11242;50.536;12.688;2023-07-30T03:12:09;4.45;;;4.07;;
22152;SDS011;11242;50.536;12.688;2023-07-30T03:14:35;9.73;;;4.22;;
22152;SDS011;11242;50.536;12.688;2023-07-30T03:17:00;4.50;;;4.10;;
22152;SDS011;11242;50.536;12.688;2023-07-30T03:19:26;4.63;;;4.22;;
22152;SDS011;11242;50.536;12.688;2023-07-30T03:21:51;5.43;;;4.10;;
22152;SDS011;11242;50.536;12.688;2023-07-30T03:24:17;4.68;;;4.28;;
22152;SDS011;11242;50.536;12.688;2023-07-30T03:26:42;4.55;;;4.05;;
22152;SDS011;11242;50.536;12.688;2023-07-30T03:29:08;4.65;;;4.15;;
22152;SDS011;11242;50.536;12.688;2023-07-30T03:31:34;7.53;;;4.78;;
22152;SDS011;11242;50.536;12.688;2023-07-30T03:33:59;4.50;;;4.03;;
22152;SDS011;11242;50.536;12.688;2023-07-30T03:36:25;6.40;;;4.35;;
22152;SDS011;11242;50.536;12.688;2023-07-30T03:38:51;4.38;;;4.00;;
22152;SDS011;11242;50.536;12.688;2023-07-30T03:41:16;4.72;;;4.25;;
22152;SDS011;11242;50.536;12.688;2023-07-30T03:43:42;3.85;;;3.55;;
22152;SDS011;11242;50.536;12.688;2023-07-30T03:46:07;4.53;;;3.67;;
22152;SDS011;11242;50.536;12.688;2023-07-30T03:48:33;5.38;;;4.25;;
22152;SDS011;11242;50.536;12.688;2023-07-30T03:50:59;4.30;;;3.97;;
22152;SDS011;11242;50.536;12.688;2023-07-30T03:53:24;4.18;;;3.88;;
22152;SDS011;11242;50.536;12.688;2023-07-30T03:55:52;5.88;;;4.28;;
22152;SDS011;11242;50.536;12.688;2023-07-30T03:58:18;5.47;;;4.47;;
22152;SDS011;11242;50.536;12.688;2023-07-30T04:00:44;4.63;;;4.22;;
22152;SDS011;11242;50.536;12.688;2023-07-30T04:03:09;4.93;;;4.53;;
22152;SDS011;11242;50.536;12.688;2023-07-30T04:05:35;4.57;;;4.22;;
22152;SDS011;11242;50.536;12.688;2023-07-30T04:08:01;4.97;;;4.57;;
22152;SDS011;11242;50.536;12.688;2023-07-30T04:10:26;7.10;;;4.60;;
22152;SDS011;11242;50.536;12.688;2023-07-30T04:12:52;5.18;;;4.78;;
22152;SDS011;11242;50.536;12.688;2023-07-30T04:15:17;5.43;;;4.70;;
22152;SDS011;11242;50.536;12.688;2023-07-30T04:17:43;6.53;;;5.13;;
22152;SDS011;11242;50.536;12.688;2023-07-30T04:20:09;10.73;;;5.45;;
22152;SDS011;11242;50.536;12.688;2023-07-30T04:22:35;5.30;;;4.80;;
22152;SDS011;11242;50.536;12.688;2023-07-30T04:25:02;5.60;;;5.10;;
22152;SDS011;11242;50.536;12.688;2023-07-30T04:27:28;6.15;;;4.70;;
22152;SDS011;11242;50.536;12.688;2023-07-30T04:29:54;5.30;;;4.90;;
22152;SDS011;11242;50.536;12.688;2023-07-30T04:32:20;5.10;;;4.60;;
22152;SDS011;11242;50.536;12.688;2023-07-30T04:34:46;4.57;;;4.18;;
22152;SDS011;11242;50.536;12.688;2023-07-30T04:37:11;4.90;;;4.40;;
22152;SDS011;11242;50.536;12.688;2023-07-30T04:39:37;4.30;;;3.90;;
22152;SDS011;11242;50.536;12.688;2023-07-30T04:42:04;4.05;;;3.65;;
22152;SDS011;11242;50.536;12.688;2023-07-30T04:44:30;4.47;;;4.07;;
22152;SDS011;11242;50.536;12.688;2023-07-30T04:47:01;4.00;;;3.47;;
22152;SDS011;11242;50.536;12.688;2023-07-30T04:49:26;3.30;;;3.10;;
22152;SDS011;11242;50.536;12.688;2023-07-30T04:51:52;3.60;;;3.30;;
22152;SDS011;11242;50.536;12.688;2023-07-30T04:54:18;4.80;;;3.05;;
22152;SDS011;11242;50.536;12.688;2023-07-30T04:56:43;3.25;;;2.95;;
22152;SDS011;11242;50.536;12.688;2023-07-30T04:59:09;2.95;;;2.75;;
22152;SDS011;11242;50.536;12.688;2023-07-30T05:01:34;3.55;;;3.35;;
22152;SDS011;11242;50.536;12.688;2023-07-30T05:04:00;3.00;;;2.80;;
22152;SDS011;11242;50.536;12.688;2023-07-30T05:06:26;3.42;;;3.13;;
22152;SDS011;11242;50.536;12.688;2023-07-30T05:08:51;3.28;;;2.78;;
22152;SDS011;11242;50.536;12.688;2023-07-30T05:11:17;3.17;;;2.97;;
22152;SDS011;11242;50.536;12.688;2023-07-30T05:13:42;2.80;;;2.58;;
22152;SDS011;11242;50.536;12.688;2023-07-30T05:16:08;2.72;;;2.53;;
22152;SDS011;11242;50.536;12.688;2023-07-30T05:18:34;3.05;;;2.65;;
22152;SDS011;11242;50.536;12.688;2023-07-30T05:20:59;3.20;;;2.90;;
22152;SDS011;11242;50.536;12.688;2023-07-30T05:23:25;3.85;;;2.90;;
22152;SDS011;11242;50.536;12.688;2023-07-30T05:25:50;3.05;;;2.85;;
22152;SDS011;11242;50.536;12.688;2023-07-30T05:28:16;3.83;;;2.97;;
22152;SDS011;11242;50.536;12.688;2023-07-30T05:30:41;3.67;;;2.85;;
22152;SDS011;11242;50.536;12.688;2023-07-30T05:33:07;3.65;;;3.05;;
22152;SDS011;11242;50.536;12.688;2023-07-30T05:35:33;2.88;;;2.67;;
22152;SDS011;11242;50.536;12.688;2023-07-30T05:37:59;3.10;;;2.90;;
22152;SDS011;11242;50.536;12.688;2023-07-30T05:40:24;3.35;;;3.05;;
22152;SDS011;11242;50.536;12.688;2023-07-30T05:42:50;3.97;;;2.75;;
22152;SDS011;11242;50.536;12.688;2023-07-30T05:45:16;3.17;;;2.97;;
22152;SDS011;11242;50.536;12.688;2023-07-30T05:47:41;3.20;;;2.95;;
22152;SDS011;11242;50.536;12.688;2023-07-30T05:50:07;3.28;;;2.97;;
22152;SDS011;11242;50.536;12.688;2023-07-30T05:52:33;3.00;;;2.80;;
22152;SDS011;11242;50.536;12.688;2023-07-30T05:54:59;4.43;;;3.08;;
22152;SDS011;11242;50.536;12.688;2023-07-30T05:57:25;6.20;;;3.47;;
22152;SDS011;11242;50.536;12.688;2023-07-30T05:59:50;3.70;;;3.40;;
22152;SDS011;11242;50.536;12.688;2023-07-30T06:02:16;3.60;;;3.30;;
22152;SDS011;11242;50.536;12.688;2023-07-30T06:04:42;3.50;;;3.17;;
22152;SDS011;11242;50.536;12.688;2023-07-30T06:07:08;3.88;;;3.40;;
22152;SDS011;11242;50.536;12.688;2023-07-30T06:09:33;3.42;;;3.22;;
22152;SDS011;11242;50.536;12.688;2023-07-30T06:11:59;3.45;;;3.15;;
22152;SDS011;11242;50.536;12.688;2023-07-30T06:14:25;5.15;;;3.28;;
22152;SDS011;11242;50.536;12.688;2023-07-30T06:16:51;4.25;;;3.15;;
22152;SDS011;11242;50.536;12.688;2023-07-30T06:19:18;3.80;;;3.50;;
22152;SDS011;11242;50.536;12.688;2023-07-30T06:21:43;4.15;;;3.33;;
22152;SDS011;11242;50.536;12.688;2023-07-30T06:24:09;3.78;;;3.47;;
22152;SDS011;11242;50.536;12.688;2023-07-30T06:26:34;4.07;;;3.45;;
22152;SDS011;11242;50.536;12.688;2023-07-30T06:29:00;3.78;;;3.40;;
22152;SDS011;11242;50.536;12.688;2023-07-30T06:31:26;3.38;;;3.10;;
22152;SDS011;11242;50.536;12.688;2023-07-30T06:33:52;3.63;;;2.90;;
22152;SDS011;11242;50.536;12.688;2023-07-30T06:36:17;4.55;;;3.30;;
22152;SDS011;11242;50.536;12.688;2023-07-30T06:38:43;3.03;;;2.80;;
22152;SDS011;11242;50.536;12.688;2023-07-30T06:41:08;3.88;;;3.47;;
22152;SDS011;11242;50.536;12.688;2023-07-30T06:43:34;5.85;;;5.35;;
22152;SDS011;11242;50.536;12.688;2023-07-30T06:46:00;5.50;;;5.05;;
22152;SDS011;11242;50.536;12.688;2023-07-30T06:48:25;4.60;;;4.20;;
22152;SDS011;11242;50.536;12.688;2023-07-30T06:50:51;3.83;;;3.53;;
22152;SDS011;11242;50.536;12.688;2023-07-30T06:53:16;3.47;;;3.20;;
22152;SDS011;11242;50.536;12.688;2023-07-30T06:55:42;11.00;;;3.90;;
22152;SDS011;11242;50.536;12.688;2023-07-30T06:58:08;3.83;;;3.35;;
22152;SDS011;11242;50.536;12.688;2023-07-30T07:00:34;3.83;;;3.10;;
22152;SDS011;11242;50.536;12.688;2023-07-30T07:02:59;3.30;;;3.10;;
22152;SDS011;11242;50.536;12.688;2023-07-30T07:05:25;4.55;;;2.92;;
22152;SDS011;11242;50.536;12.688;2023-07-30T07:07:51;3.72;;;3.00;;
22152;SDS011;11242;50.536;12.688;2023-07-30T07:10:16;3.92;;;3.20;;
22152;SDS011;11242;50.536;12.688;2023-07-30T07:12:42;3.92;;;3.30;;
22152;SDS011;11242;50.536;12.688;2023-07-30T07:15:08;4.72;;;3.30;;
22152;SDS011;11242;50.536;12.688;2023-07-30T07:17:33;4.13;;;3.72;;
22152;SDS011;11242;50.536;12.688;2023-07-30T07:20:00;4.30;;;3.20;;
22152;SDS011;11242;50.536;12.688;2023-07-30T07:22:25;3.67;;;3.38;;
22152;SDS011;11242;50.536;12.688;2023-07-30T07:24:51;3.70;;;3.40;;
22152;SDS011;11242;50.536;12.688;2023-07-30T07:27:18;3.58;;;3.30;;
22152;SDS011;11242;50.536;12.688;2023-07-30T07:29:44;4.32;;;3.00;;
22152;SDS011;11242;50.536;12.688;2023-07-30T07:32:09;3.78;;;3.42;;
22152;SDS011;11242;50.536;12.688;2023-07-30T07:34:35;3.90;;;3.60;;
22152;SDS011;11242;50.536;12.688;2023-07-30T07:37:01;3.55;;;3.25;;
22152;SDS011;11242;50.536;12.688;2023-07-30T07:39:27;4.75;;;3.38;;
22152;SDS011;11242;50.536;12.688;2023-07-30T07:41:52;4.18;;;3.78;;
22152;SDS011;11242;50.536;12.688;2023-07-30T07:44:18;3.95;;;3.65;;
22152;SDS011;11242;50.536;12.688;2023-07-30T07:46:44;3.58;;;3.28;;
22152;SDS011;11242;50.536;12.688;2023-07-30T07:49:10;3.58;;;3.28;;
22152;SDS011;11242;50.536;12.688;2023-07-30T07:51:35;4.47;;;3.47;;
22152;SDS011;11242;50.536;12.688;2023-07-30T07:54:01;4.15;;;3.72;;
22152;SDS011;11242;50.536;12.688;2023-07-30T07:56:26;4.70;;;3.63;;
22152;SDS011;11242;50.536;12.688;2023-07-30T07:58:52;4.07;;;3.50;;
22152;SDS011;11242;50.536;12.688;2023-07-30T08:01:18;4.40;;;4.00;;
22152;SDS011;11242;50.536;12.688;2023-07-30T08:03:43;4.13;;;3.50;;
22152;SDS011;11242;50.536;12.688;2023-07-30T08:06:09;4.78;;;3.60;;
22152;SDS011;11242;50.536;12.688;2023-07-30T08:08:35;4.07;;;3.65;;
22152;SDS011;11242;50.536;12.688;2023-07-30T08:11:07;3.60;;;3.30;;
22152;SDS011;11242;50.536;12.688;2023-07-30T08:13:34;4.32;;;3.67;;
22152;SDS011;11242;50.536;12.688;2023-07-30T08:16:00;4.97;;;3.60;;
22152;SDS011;11242;50.536;12.688;2023-07-30T08:18:27;5.85;;;3.63;;
22152;SDS011;11242;50.536;12.688;2023-07-30T08:20:53;4.43;;;3.58;;
22152;SDS011;11242;50.536;12.688;2023-07-30T08:23:19;4.00;;;3.55;;
22152;SDS011;11242;50.536;12.688;2023-07-30T08:25:44;3.83;;;3.53;;
22152;SDS011;11242;50.536;12.688;2023-07-30T08:28:10;3.40;;;3.05;;
22152;SDS011;11242;50.536;12.688;2023-07-30T08:30:36;4.75;;;3.65;;
22152;SDS011;11242;50.536;12.688;2023-07-30T08:33:01;4.43;;;3.40;;
22152;SDS011;11242;50.536;12.688;2023-07-30T08:35:27;3.63;;;3.33;;
22152;SDS011;11242;50.536;12.688;2023-07-30T08:37:54;3.40;;;3.20;;
22152;SDS011;11242;50.536;12.688;2023-07-30T08:40:21;3.42;;;3.22;;
22152;SDS011;11242;50.536;12.688;2023-07-30T08:42:49;3.28;;;3.08;;
22152;SDS011;11242;50.536;12.688;2023-07-30T08:45:18;3.40;;;3.10;;
22152;SDS011;11242;50.536;12.688;2023-07-30T08:47:45;3.63;;;2.95;;
22152;SDS011;11242;50.536;12.688;2023-07-30T08:50:11;3.45;;;2.90;;
22152;SDS011;11242;50.536;12.688;2023-07-30T08:52:37;3.00;;;2.78;;
22152;SDS011;11242;50.536;12.688;2023-07-30T08:55:04;5.05;;;3.20;;
22152;SDS011;11242;50.536;12.688;2023-07-30T08:57:31;3.63;;;3.00;;
22152;SDS011;11242;50.536;12.688;2023-07-30T09:00:02;3.88;;;3.05;;
22152;SDS011;11242;50.536;12.688;2023-07-30T09:02:34;3.03;;;2.83;;
22152;SDS011;11242;50.536;12.688;2023-07-30T09:05:00;4.30;;;2.67;;
22152;SDS011;11242;50.536;12.688;2023-07-30T09:07:27;3.08;;;2.80;;
22152;SDS011;11242;50.536;12.688;2023-07-30T09:09:52;2.70;;;2.50;;
22152;SDS011;11242;50.536;12.688;2023-07-30T09:12:18;2.50;;;2.30;;
22152;SDS011;11242;50.536;12.688;2023-07-30T09:14:44;3.10;;;2.50;;
22152;SDS011;11242;50.536;12.688;2023-07-30T09:17:16;2.88;;;2.40;;
22152;SDS011;11242;50.536;12.688;2023-07-30T09:19:43;2.40;;;2.28;;
22152;SDS011;11242;50.536;12.688;2023-07-30T09:22:08;3.42;;;2.50;;
22152;SDS011;11242;50.536;12.688;2023-07-30T09:24:34;2.50;;;2.30;;
22152;SDS011;11242;50.536;12.688;2023-07-30T09:27:02;2.80;;;2.60;;
22152;SDS011;11242;50.536;12.688;2023-07-30T09:29:28;2.40;;;2.20;;
22152;SDS011;11242;50.536;12.688;2023-07-30T09:31:54;3.55;;;2.50;;
22152;SDS011;11242;50.536;12.688;2023-07-30T09:34:21;3.35;;;2.25;;
22152;SDS011;11242;50.536;12.688;2023-07-30T09:36:51;2.40;;;2.30;;
22152;SDS011;11242;50.536;12.688;2023-07-30T09:39:25;2.45;;;2.25;;
22152;SDS011;11242;50.536;12.688;2023-07-30T09:41:52;2.22;;;2.10;;
22152;SDS011;11242;50.536;12.688;2023-07-30T09:44:23;2.95;;;2.38;;
22152;SDS011;11242;50.536;12.688;2023-07-30T09:46:49;3.22;;;1.98;;
22152;SDS011;11242;50.536;12.688;2023-07-30T09:49:16;1.80;;;1.70;;
22152;SDS011;11242;50.536;12.688;2023-07-30T09:51:42;2.00;;;1.90;;
22152;SDS011;11242;50.536;12.688;2023-07-30T09:54:11;1.98;;;1.88;;
22152;SDS011;11242;50.536;12.688;2023-07-30T09:56:39;2.53;;;1.88;;
22152;SDS011;11242;50.536;12.688;2023-07-30T09:59:06;2.47;;;1.70;;
22152;SDS011;11242;50.536;12.688;2023-07-30T10:01:33;1.98;;;1.85;;
22152;SDS011;11242;50.536;12.688;2023-07-30T10:04:04;1.83;;;1.73;;
22152;SDS011;11242;50.536;12.688;2023-07-30T10:06:33;2.33;;;2.13;;
22152;SDS011;11242;50.536;12.688;2023-07-30T10:09:12;3.85;;;2.00;;
22152;SDS011;11242;50.536;12.688;2023-07-30T10:11:40;1.85;;;1.75;;
22152;SDS011;11242;50.536;12.688;2023-07-30T10:14:07;2.10;;;2.00;;
22152;SDS011;11242;50.536;12.688;2023-07-30T10:16:33;2.95;;;1.98;;
22152;SDS011;11242;50.536;12.688;2023-07-30T10:18:59;2.00;;;1.90;;
22152;SDS011;11242;50.536;12.688;2023-07-30T10:21:25;2.63;;;1.80;;
22152;SDS011;11242;50.536;12.688;2023-07-30T10:23:58;2.78;;;1.73;;
22152;SDS011;11242;50.536;12.688;2023-07-30T10:26:33;1.90;;;1.80;;
22152;SDS011;11242;50.536;12.688;2023-07-30T10:29:09;4.68;;;2.03;;
22152;SDS011;11242;50.536;12.688;2023-07-30T10:31:39;2.22;;;1.70;;
22152;SDS011;11242;50.536;12.688;2023-07-30T10:34:26;2.40;;;1.50;;
22152;SDS011;11242;50.536;12.688;2023-07-30T10:36:54;2.03;;;1.70;;
22152;SDS011;11242;50.536;12.688;2023-07-30T10:39:22;2.28;;;1.75;;
22152;SDS011;11242;50.536;12.688;2023-07-30T10:41:53;2.25;;;1.60;;
22152;SDS011;11242;50.536;12.688;2023-07-30T10:46:50;1.75;;;1.65;;
22152;SDS011;11242;50.536;12.688;2023-07-30T10:49:17;1.85;;;1.67;;
22152;SDS011;11242;50.536;12.688;2023-07-30T10:51:43;2.15;;;1.90;;
22152;SDS011;11242;50.536;12.688;2023-07-30T10:54:08;1.60;;;1.50;;
22152;SDS011;11242;50.536;12.688;2023-07-30T10:56:35;2.47;;;1.70;;
22152;SDS011;11242;50.536;12.688;2023-07-30T10:59:05;1.73;;;1.63;;
22152;SDS011;11242;50.536;12.688;2023-07-30T11:01:35;1.70;;;1.60;;
22152;SDS011;11242;50.536;12.688;2023-07-30T11:04:05;2.20;;;1.50;;
22152;SDS011;11242;50.536;12.688;2023-07-30T11:06:51;1.65;;;1.55;;
22152;SDS011;11242;50.536;12.688;2023-07-30T11:11:46;1.60;;;1.50;;
22152;SDS011;11242;50.536;12.688;2023-07-30T11:14:16;2.25;;;1.25;;
22152;SDS011;11242;50.536;12.688;2023-07-30T11:16:50;3.20;;;1.55;;
22152;SDS011;11242;50.536;12.688;2023-07-30T11:19:20;1.45;;;1.35;;
22152;SDS011;11242;50.536;12.688;2023-07-30T11:21:50;2.05;;;1.20;;
22152;SDS011;11242;50.536;12.688;2023-07-30T11:24:18;1.52;;;1.42;;
22152;SDS011;11242;50.536;12.688;2023-07-30T11:26:44;1.45;;;1.00;;
22152;SDS011;11242;50.536;12.688;2023-07-30T11:29:17;1.25;;;1.20;;
22152;SDS011;11242;50.536;12.688;2023-07-30T11:31:43;1.55;;;1.10;;
22152;SDS011;11242;50.536;12.688;2023-07-30T11:34:10;1.45;;;1.30;;
22152;SDS011;11242;50.536;12.688;2023-07-30T11:36:37;1.20;;;1.20;;
22152;SDS011;11242;50.536;12.688;2023-07-30T11:39:03;1.55;;;1.45;;
22152;SDS011;11242;50.536;12.688;2023-07-30T11:41:29;2.65;;;1.10;;
22152;SDS011;11242;50.536;12.688;2023-07-30T11:43:55;1.40;;;1.30;;
22152;SDS011;11242;50.536;12.688;2023-07-30T11:46:21;1.60;;;1.50;;
22152;SDS011;11242;50.536;12.688;2023-07-30T11:48:48;1.70;;;1.60;;
22152;SDS011;11242;50.536;12.688;2023-07-30T11:51:25;1.65;;;1.55;;
22152;SDS011;11242;50.536;12.688;2023-07-30T11:53:55;2.80;;;1.70;;
22152;SDS011;11242;50.536;12.688;2023-07-30T11:56:26;2.08;;;1.58;;
22152;SDS011;11242;50.536;12.688;2023-07-30T11:59:02;1.60;;;1.50;;
22152;SDS011;11242;50.536;12.688;2023-07-30T12:01:30;1.55;;;1.45;;
22152;SDS011;11242;50.536;12.688;2023-07-30T12:03:59;1.75;;;1.65;;
22152;SDS011;11242;50.536;12.688;2023-07-30T12:06:41;3.53;;;2.20;;
22152;SDS011;11242;50.536;12.688;2023-07-30T12:09:12;7.40;;;2.15;;
22152;SDS011;11242;50.536;12.688;2023-07-30T12:11:50;5.90;;;2.28;;
22152;SDS011;11242;50.536;12.688;2023-07-30T12:14:17;3.80;;;2.38;;
22152;SDS011;11242;50.536;12.688;2023-07-30T12:16:43;4.70;;;2.20;;
22152;SDS011;11242;50.536;12.688;2023-07-30T12:19:09;3.78;;;2.25;;
22152;SDS011;11242;50.536;12.688;2023-07-30T12:21:34;8.05;;;2.17;;
22152;SDS011;11242;50.536;12.688;2023-07-30T12:24:01;5.50;;;2.40;;
22152;SDS011;11242;50.536;12.688;2023-07-30T12:26:27;5.63;;;2.30;;
22152;SDS011;11242;50.536;12.688;2023-07-30T12:28:52;3.28;;;2.10;;
22152;SDS011;11242;50.536;12.688;2023-07-30T12:31:18;3.85;;;2.13;;
22152;SDS011;11242;50.536;12.688;2023-07-30T12:33:43;4.10;;;2.20;;
22152;SDS011;11242;50.536;12.688;2023-07-30T12:36:09;2.28;;;2.08;;
22152;SDS011;11242;50.536;12.688;2023-07-30T12:38:34;5.55;;;2.20;;
22152;SDS011;11242;50.536;12.688;2023-07-30T12:41:00;3.20;;;2.17;;
22152;SDS011;11242;50.536;12.688;2023-07-30T12:43:26;4.07;;;2.15;;
22152;SDS011;11242;50.536;12.688;2023-07-30T12:45:51;2.40;;;1.90;;
22152;SDS011;11242;50.536;12.688;2023-07-30T12:48:17;1.90;;;1.80;;
22152;SDS011;11242;50.536;12.688;2023-07-30T12:50:42;2.13;;;1.90;;
22152;SDS011;11242;50.536;12.688;2023-07-30T12:53:08;1.80;;;1.70;;
22152;SDS011;11242;50.536;12.688;2023-07-30T12:55:34;2.30;;;2.10;;
22152;SDS011;11242;50.536;12.688;2023-07-30T12:57:59;3.47;;;2.00;;
22152;SDS011;11242;50.536;12.688;2023-07-30T13:00:25;2.53;;;1.90;;
22152;SDS011;11242;50.536;12.688;2023-07-30T13:02:51;2.08;;;1.98;;
22152;SDS011;11242;50.536;12.688;2023-07-30T13:05:20;1.83;;;1.73;;
22152;SDS011;11242;50.536;12.688;2023-07-30T13:07:46;1.90;;;1.80;;
22152;SDS011;11242;50.536;12.688;2023-07-30T13:10:12;3.58;;;2.00;;
22152;SDS011;11242;50.536;12.688;2023-07-30T13:12:37;1.88;;;1.77;;
22152;SDS011;11242;50.536;12.688;2023-07-30T13:15:03;2.00;;;1.80;;
22152;SDS011;11242;50.536;12.688;2023-07-30T13:17:29;7.45;;;2.30;;
22152;SDS011;11242;50.536;12.688;2023-07-30T13:19:55;2.20;;;2.00;;
22152;SDS011;11242;50.536;12.688;2023-07-30T13:22:21;3.50;;;2.20;;
22152;SDS011;11242;50.536;12.688;2023-07-30T13:24:47;3.47;;;1.75;;
22152;SDS011;11242;50.536;12.688;2023-07-30T13:27:12;1.90;;;1.80;;
22152;SDS011;11242;50.536;12.688;2023-07-30T13:29:38;3.15;;;1.80;;
22152;SDS011;11242;50.536;12.688;2023-07-30T13:32:04;3.92;;;1.70;;
22152;SDS011;11242;50.536;12.688;2023-07-30T13:34:31;3.70;;;2.13;;
22152;SDS011;11242;50.536;12.688;2023-07-30T13:36:57;2.55;;;1.50;;
22152;SDS011;11242;50.536;12.688;2023-07-30T13:39:22;2.40;;;1.90;;
22152;SDS011;11242;50.536;12.688;2023-07-30T13:41:48;2.00;;;1.80;;
22152;SDS011;11242;50.536;12.688;2023-07-30T13:44:13;1.80;;;1.70;;
22152;SDS011;11242;50.536;12.688;2023-07-30T13:46:39;2.90;;;1.70;;
22152;SDS011;11242;50.536;12.688;2023-07-30T13:49:05;2.63;;;2.10;;
22152;SDS011;11242;50.536;12.688;2023-07-30T13:51:31;3.42;;;2.17;;
22152;SDS011;11242;50.536;12.688;2023-07-30T13:54:00;2.03;;;1.83;;
22152;SDS011;11242;50.536;12.688;2023-07-30T13:56:27;2.30;;;2.00;;
22152;SDS011;11242;50.536;12.688;2023-07-30T13:58:53;1.73;;;1.63;;
22152;SDS011;11242;50.536;12.688;2023-07-30T14:01:19;2.10;;;1.90;;
22152;SDS011;11242;50.536;12.688;2023-07-30T14:03:45;2.15;;;2.00;;
22152;SDS011;11242;50.536;12.688;2023-07-30T14:06:10;1.77;;;1.65;;
22152;SDS011;11242;50.536;12.688;2023-07-30T14:08:37;2.53;;;1.45;;
22152;SDS011;11242;50.536;12.688;2023-07-30T14:11:02;1.92;;;1.52;;
22152;SDS011;11242;50.536;12.688;2023-07-30T14:13:28;1.65;;;1.55;;
22152;SDS011;11242;50.536;12.688;2023-07-30T14:15:53;2.88;;;1.70;;
22152;SDS011;11242;50.536;12.688;2023-07-30T14:18:19;2.17;;;1.98;;
22152;SDS011;11242;50.536;12.688;2023-07-30T14:20:45;2.00;;;1.90;;
22152;SDS011;11242;50.536;12.688;2023-07-30T14:23:10;1.65;;;1.55;;
22152;SDS011;11242;50.536;12.688;2023-07-30T14:25:36;2.00;;;1.80;;
22152;SDS011;11242;50.536;12.688;2023-07-30T14:28:04;1.77;;;1.67;;
22152;SDS011;11242;50.536;12.688;2023-07-30T14:30:30;2.40;;;1.50;;
22152;SDS011;11242;50.536;12.688;2023-07-30T14:32:56;1.60;;;1.50;;
22152;SDS011;11242;50.536;12.688;2023-07-30T14:35:22;1.70;;;1.60;;
22152;SDS011;11242;50.536;12.688;2023-07-30T14:37:47;2.92;;;1.77;;